WUK1GD EGGW-LYBE
Flight info
| Callsign | WUK1GD |
|---|---|
| Flight time | 2h 13m |
| Altitude | 33000 |
| Route | MATCH Q295 BRAIN M197 REDFA DCT TACHA DCT TIVUN DCT ESAMA DCT OSBIT DCT TENLO DCT LAMSI DCT SASAL DCT SOGMO DCT BABIT DCT RIGMU |
| Aircraft | A321/M-SDE3FGHIRWY/LB1 |
Departure
| Time | 2026-04-28 20:54 |
|---|---|
| Airport | London Luton Airport (EGGW) |
Arrival
| Time | 2026-04-28 23:08 |
|---|---|
| Airport | Belgrade Nikola Tesla Airport (LYBE) |
| Time | Latitude | Longitude | Altitude | Speed | Heading |
|---|---|---|---|---|---|
| 2026-04-28 20:32 | 51.88144 | -0.37484 | 517 ft | 0 kts | 161° |
| 2026-04-28 20:42 | 51.88146 | -0.37485 | 516 ft | 3 kts | 161° |
| 2026-04-28 20:42 | 51.88171 | -0.37499 | 516 ft | 4 kts | 161° |
| 2026-04-28 20:42 | 51.88191 | -0.37509 | 516 ft | 4 kts | 156° |
| 2026-04-28 20:43 | 51.88208 | -0.37531 | 516 ft | 2 kts | 105° |
| 2026-04-28 20:43 | 51.88213 | -0.37564 | 516 ft | 1 kts | 104° |
| 2026-04-28 20:43 | 51.88213 | -0.37565 | 516 ft | 0 kts | 104° |
| 2026-04-28 20:46 | 51.88211 | -0.37548 | 516 ft | 4 kts | 104° |
| 2026-04-28 20:46 | 51.88202 | -0.37479 | 516 ft | 8 kts | 88° |
| 2026-04-28 20:47 | 51.88228 | -0.37368 | 516 ft | 13 kts | 54° |
| 2026-04-28 20:47 | 51.88258 | -0.37310 | 517 ft | 1 kts | 36° |
| 2026-04-28 20:47 | 51.88270 | -0.37287 | 517 ft | 5 kts | 63° |
| 2026-04-28 20:47 | 51.88251 | -0.37260 | 517 ft | 6 kts | 162° |
| 2026-04-28 20:48 | 51.88195 | -0.37227 | 516 ft | 11 kts | 161° |
| 2026-04-28 20:48 | 51.88090 | -0.37172 | 509 ft | 21 kts | 161° |
| 2026-04-28 20:48 | 51.87941 | -0.37091 | 509 ft | 20 kts | 162° |
| 2026-04-28 20:48 | 51.87820 | -0.37027 | 513 ft | 14 kts | 162° |
| 2026-04-28 20:49 | 51.87726 | -0.36977 | 520 ft | 14 kts | 162° |
| 2026-04-28 20:49 | 51.87672 | -0.36950 | 524 ft | 6 kts | 167° |
| 2026-04-28 20:49 | 51.87668 | -0.36949 | 524 ft | 0 kts | 172° |
| 2026-04-28 20:49 | 51.87667 | -0.36949 | 524 ft | 0 kts | 173° |
| 2026-04-28 20:50 | 51.87661 | -0.36950 | 524 ft | 1 kts | 184° |
| 2026-04-28 20:50 | 51.87647 | -0.36962 | 524 ft | 5 kts | 210° |
| 2026-04-28 20:50 | 51.87618 | -0.37049 | 522 ft | 12 kts | 250° |
| 2026-04-28 20:50 | 51.87595 | -0.37169 | 522 ft | 11 kts | 253° |
| 2026-04-28 20:51 | 51.87581 | -0.37313 | 522 ft | 15 kts | 284° |
| 2026-04-28 20:51 | 51.87571 | -0.37438 | 522 ft | 10 kts | 225° |
| 2026-04-28 20:51 | 51.87506 | -0.37534 | 522 ft | 15 kts | 247° |
| 2026-04-28 20:51 | 51.87485 | -0.37644 | 523 ft | 17 kts | 257° |
| 2026-04-28 20:52 | 51.87444 | -0.37892 | 523 ft | 14 kts | 254° |
| 2026-04-28 20:52 | 51.87393 | -0.38043 | 523 ft | 18 kts | 218° |
| 2026-04-28 20:52 | 51.87359 | -0.38074 | 523 ft | 0 kts | 205° |
| 2026-04-28 20:53 | 51.87324 | -0.38099 | 522 ft | 11 kts | 203° |
| 2026-04-28 20:53 | 51.87253 | -0.38096 | 523 ft | 6 kts | 115° |
| 2026-04-28 20:53 | 51.87266 | -0.37986 | 524 ft | 14 kts | 76° |
| 2026-04-28 20:54 | 51.87341 | -0.37537 | 521 ft | 81 kts | 75° |
| 2026-04-28 20:54 | 51.87543 | -0.36298 | 524 ft | 147 kts | 77° |
| 2026-04-28 20:54 | 51.87845 | -0.34557 | 1101 ft | 161 kts | 69° |
| 2026-04-28 20:54 | 51.88157 | -0.32810 | 1667 ft | 169 kts | 71° |
| 2026-04-28 20:55 | 51.88504 | -0.30841 | 1780 ft | 191 kts | 72° |
| 2026-04-28 20:55 | 51.88891 | -0.28625 | 2001 ft | 215 kts | 73° |
| 2026-04-28 20:55 | 51.89304 | -0.26233 | 2552 ft | 224 kts | 74° |
| 2026-04-28 20:55 | 51.89574 | -0.23747 | 3246 ft | 229 kts | 92° |
| 2026-04-28 20:56 | 51.89026 | -0.21310 | 3898 ft | 240 kts | 124° |
| 2026-04-28 20:56 | 51.87641 | -0.19679 | 4537 ft | 255 kts | 150° |
| 2026-04-28 20:56 | 51.86011 | -0.18508 | 5242 ft | 258 kts | 151° |
| 2026-04-28 20:56 | 51.84356 | -0.17349 | 5925 ft | 261 kts | 151° |
| 2026-04-28 20:57 | 51.82681 | -0.16176 | 6619 ft | 263 kts | 151° |
| 2026-04-28 20:57 | 51.80998 | -0.14986 | 7367 ft | 266 kts | 151° |
| 2026-04-28 20:57 | 51.79299 | -0.13780 | 8020 ft | 268 kts | 151° |
| 2026-04-28 20:57 | 51.77613 | -0.12558 | 8676 ft | 269 kts | 147° |
| 2026-04-28 20:58 | 51.76187 | -0.10697 | 9285 ft | 263 kts | 123° |
| 2026-04-28 20:58 | 51.75425 | -0.08055 | 9892 ft | 262 kts | 99° |
| 2026-04-28 20:58 | 51.75425 | -0.05117 | 10477 ft | 265 kts | 82° |
| 2026-04-28 20:58 | 51.75691 | -0.02078 | 10692 ft | 284 kts | 83° |
| 2026-04-28 20:59 | 51.75970 | 0.01185 | 10813 ft | 304 kts | 83° |
| 2026-04-28 20:59 | 51.76264 | 0.04678 | 10867 ft | 323 kts | 83° |
| 2026-04-28 20:59 | 51.76570 | 0.08368 | 11045 ft | 339 kts | 83° |
| 2026-04-28 20:59 | 51.76881 | 0.12172 | 11508 ft | 344 kts | 83° |
| 2026-04-28 21:00 | 51.77196 | 0.16021 | 12077 ft | 347 kts | 83° |
| 2026-04-28 21:00 | 51.77513 | 0.19908 | 12654 ft | 351 kts | 83° |
| 2026-04-28 21:00 | 51.77835 | 0.23835 | 13223 ft | 354 kts | 83° |
| 2026-04-28 21:00 | 51.78158 | 0.27779 | 13813 ft | 356 kts | 83° |
| 2026-04-28 21:01 | 51.78481 | 0.31762 | 14360 ft | 359 kts | 83° |
| 2026-04-28 21:01 | 51.78696 | 0.34421 | 14715 ft | 361 kts | 83° |
| 2026-04-28 21:01 | 51.79020 | 0.38450 | 15264 ft | 363 kts | 83° |
| 2026-04-28 21:01 | 51.79344 | 0.42503 | 15806 ft | 365 kts | 83° |
| 2026-04-28 21:02 | 51.79671 | 0.46642 | 16373 ft | 367 kts | 83° |
| 2026-04-28 21:02 | 51.79994 | 0.50747 | 16919 ft | 369 kts | 83° |
| 2026-04-28 21:02 | 51.80317 | 0.54873 | 17478 ft | 371 kts | 83° |
| 2026-04-28 21:02 | 51.80639 | 0.58975 | 18023 ft | 374 kts | 83° |
| 2026-04-28 21:03 | 51.80966 | 0.63147 | 18535 ft | 376 kts | 83° |
| 2026-04-28 21:03 | 51.81454 | 0.67327 | 18988 ft | 379 kts | 77° |
| 2026-04-28 21:03 | 51.82097 | 0.71459 | 19441 ft | 380 kts | 77° |
| 2026-04-28 21:03 | 51.82737 | 0.75618 | 19887 ft | 382 kts | 77° |
| 2026-04-28 21:04 | 51.83377 | 0.79799 | 20330 ft | 384 kts | 77° |
| 2026-04-28 21:04 | 51.84037 | 0.83990 | 20783 ft | 385 kts | 76° |
| 2026-04-28 21:04 | 51.84766 | 0.88167 | 21226 ft | 387 kts | 75° |
| 2026-04-28 21:04 | 51.85541 | 0.92338 | 21654 ft | 389 kts | 74° |
| 2026-04-28 21:05 | 51.86336 | 0.96528 | 22079 ft | 390 kts | 74° |
| 2026-04-28 21:05 | 51.87130 | 1.00730 | 22486 ft | 392 kts | 74° |
| 2026-04-28 21:05 | 51.87916 | 1.04960 | 22883 ft | 393 kts | 74° |
| 2026-04-28 21:05 | 51.88693 | 1.09215 | 23293 ft | 395 kts | 74° |
| 2026-04-28 21:06 | 51.89467 | 1.13498 | 23692 ft | 397 kts | 74° |
| 2026-04-28 21:06 | 51.90237 | 1.17798 | 24054 ft | 398 kts | 74° |
| 2026-04-28 21:06 | 51.91008 | 1.22115 | 24384 ft | 400 kts | 74° |
| 2026-04-28 21:06 | 51.91780 | 1.26443 | 24716 ft | 401 kts | 74° |
| 2026-04-28 21:07 | 51.92553 | 1.30786 | 25046 ft | 402 kts | 74° |
| 2026-04-28 21:07 | 51.93327 | 1.35149 | 25364 ft | 403 kts | 74° |
| 2026-04-28 21:07 | 51.94105 | 1.39528 | 25674 ft | 405 kts | 74° |
| 2026-04-28 21:07 | 51.94883 | 1.43922 | 25987 ft | 406 kts | 74° |
| 2026-04-28 21:08 | 51.95660 | 1.48324 | 26281 ft | 407 kts | 74° |
| 2026-04-28 21:08 | 51.96439 | 1.52744 | 26594 ft | 409 kts | 74° |
| 2026-04-28 21:08 | 51.97222 | 1.57179 | 26896 ft | 410 kts | 74° |
| 2026-04-28 21:08 | 51.98003 | 1.61613 | 27198 ft | 411 kts | 74° |
| 2026-04-28 21:09 | 51.98792 | 1.66102 | 27502 ft | 413 kts | 74° |
| 2026-04-28 21:09 | 51.99300 | 1.70676 | 27845 ft | 413 kts | 87° |
| 2026-04-28 21:09 | 51.99023 | 1.75318 | 28246 ft | 415 kts | 99° |
| 2026-04-28 21:09 | 51.98395 | 1.79888 | 28673 ft | 414 kts | 99° |
| 2026-04-28 21:10 | 51.97753 | 1.84429 | 29094 ft | 413 kts | 100° |
| 2026-04-28 21:10 | 51.97101 | 1.88953 | 29513 ft | 411 kts | 100° |
| 2026-04-28 21:10 | 51.96450 | 1.93463 | 29929 ft | 410 kts | 100° |
| 2026-04-28 21:10 | 51.95800 | 1.97955 | 30339 ft | 408 kts | 99° |
| 2026-04-28 21:11 | 51.95155 | 2.02426 | 30680 ft | 407 kts | 100° |
| 2026-04-28 21:11 | 51.94513 | 2.06898 | 30988 ft | 407 kts | 100° |
| 2026-04-28 21:11 | 51.93876 | 2.11362 | 31283 ft | 407 kts | 100° |
| 2026-04-28 21:11 | 51.93239 | 2.15819 | 31568 ft | 406 kts | 100° |
| 2026-04-28 21:12 | 51.92598 | 2.20278 | 31852 ft | 406 kts | 100° |
| 2026-04-28 21:12 | 51.91952 | 2.24734 | 32130 ft | 406 kts | 100° |
| 2026-04-28 21:12 | 51.91301 | 2.29191 | 32409 ft | 406 kts | 101° |
| 2026-04-28 21:12 | 51.90646 | 2.33642 | 32680 ft | 406 kts | 101° |
| 2026-04-28 21:13 | 51.89988 | 2.38095 | 32953 ft | 406 kts | 101° |
| 2026-04-28 21:13 | 51.89331 | 2.42539 | 33210 ft | 407 kts | 101° |
| 2026-04-28 21:13 | 51.88009 | 2.51461 | 33301 ft | 408 kts | 101° |
| 2026-04-28 21:14 | 51.86686 | 2.60398 | 33296 ft | 408 kts | 101° |
| 2026-04-28 21:14 | 51.85358 | 2.69337 | 33296 ft | 409 kts | 101° |
| 2026-04-28 21:15 | 51.84013 | 2.78276 | 33293 ft | 409 kts | 101° |
| 2026-04-28 21:15 | 51.82657 | 2.87221 | 33286 ft | 410 kts | 101° |
| 2026-04-28 21:16 | 51.81294 | 2.96170 | 33278 ft | 410 kts | 101° |
| 2026-04-28 21:16 | 51.79926 | 3.05109 | 33270 ft | 410 kts | 102° |
| 2026-04-28 21:17 | 51.78548 | 3.14069 | 33258 ft | 411 kts | 102° |
| 2026-04-28 21:17 | 51.77166 | 3.23017 | 33246 ft | 411 kts | 102° |
| 2026-04-28 21:18 | 51.75775 | 3.31989 | 33246 ft | 412 kts | 102° |
| 2026-04-28 21:18 | 51.74383 | 3.40904 | 33238 ft | 412 kts | 102° |
| 2026-04-28 21:19 | 51.72976 | 3.49887 | 33238 ft | 413 kts | 102° |
| 2026-04-28 21:19 | 51.71560 | 3.58876 | 33238 ft | 414 kts | 102° |
| 2026-04-28 21:20 | 51.70124 | 3.67881 | 33238 ft | 414 kts | 102° |
| 2026-04-28 21:20 | 51.68682 | 3.76876 | 33235 ft | 415 kts | 102° |
| 2026-04-28 21:21 | 51.67238 | 3.85893 | 33236 ft | 416 kts | 102° |
| 2026-04-28 21:21 | 51.65782 | 3.94905 | 33235 ft | 416 kts | 102° |
| 2026-04-28 21:22 | 51.64322 | 4.03932 | 33234 ft | 417 kts | 102° |
| 2026-04-28 21:22 | 51.63103 | 4.11452 | 33236 ft | 418 kts | 102° |
| 2026-04-28 21:23 | 51.61367 | 4.22021 | 33236 ft | 418 kts | 103° |
| 2026-04-28 21:23 | 51.59866 | 4.31077 | 33233 ft | 419 kts | 103° |
| 2026-04-28 21:24 | 51.58362 | 4.40144 | 33231 ft | 420 kts | 103° |
| 2026-04-28 21:24 | 51.56853 | 4.49217 | 33233 ft | 420 kts | 103° |
| 2026-04-28 21:25 | 51.55337 | 4.58304 | 33235 ft | 421 kts | 103° |
| 2026-04-28 21:25 | 51.53805 | 4.67391 | 33235 ft | 422 kts | 103° |
| 2026-04-28 21:26 | 51.52262 | 4.76493 | 33233 ft | 423 kts | 103° |
| 2026-04-28 21:26 | 51.50712 | 4.85598 | 33233 ft | 423 kts | 103° |
| 2026-04-28 21:27 | 51.49152 | 4.94719 | 33232 ft | 424 kts | 103° |
| 2026-04-28 21:27 | 51.47579 | 5.03843 | 33232 ft | 425 kts | 103° |
| 2026-04-28 21:28 | 51.46007 | 5.12929 | 33230 ft | 426 kts | 103° |
| 2026-04-28 21:28 | 51.44419 | 5.22091 | 33230 ft | 427 kts | 104° |
| 2026-04-28 21:29 | 51.42819 | 5.31268 | 33229 ft | 428 kts | 104° |
| 2026-04-28 21:29 | 51.41204 | 5.40472 | 33231 ft | 429 kts | 104° |
| 2026-04-28 21:30 | 51.39576 | 5.49675 | 33230 ft | 430 kts | 104° |
| 2026-04-28 21:30 | 51.37941 | 5.58900 | 33230 ft | 431 kts | 104° |
| 2026-04-28 21:31 | 51.36294 | 5.68134 | 33228 ft | 432 kts | 104° |
| 2026-04-28 21:31 | 51.34638 | 5.77380 | 33229 ft | 433 kts | 104° |
| 2026-04-28 21:32 | 51.32976 | 5.86643 | 33234 ft | 434 kts | 104° |
| 2026-04-28 21:32 | 51.31293 | 5.95908 | 33237 ft | 435 kts | 104° |
| 2026-04-28 21:33 | 51.29600 | 6.05194 | 33237 ft | 436 kts | 104° |
| 2026-04-28 21:33 | 51.27897 | 6.14490 | 33243 ft | 436 kts | 104° |
| 2026-04-28 21:34 | 51.26188 | 6.23808 | 33249 ft | 438 kts | 105° |
| 2026-04-28 21:34 | 51.24467 | 6.33139 | 33257 ft | 439 kts | 105° |
| 2026-04-28 21:35 | 51.22731 | 6.42486 | 33262 ft | 440 kts | 105° |
| 2026-04-28 21:35 | 51.20980 | 6.51834 | 33258 ft | 440 kts | 105° |
| 2026-04-28 21:36 | 51.19222 | 6.61198 | 33259 ft | 441 kts | 105° |
| 2026-04-28 21:36 | 51.17460 | 6.70569 | 33260 ft | 442 kts | 105° |
| 2026-04-28 21:37 | 51.15684 | 6.79969 | 33252 ft | 443 kts | 105° |
| 2026-04-28 21:37 | 51.13899 | 6.89367 | 33247 ft | 444 kts | 105° |
| 2026-04-28 21:38 | 51.12100 | 6.98771 | 33248 ft | 445 kts | 105° |
| 2026-04-28 21:38 | 51.10282 | 7.08193 | 33229 ft | 446 kts | 105° |
| 2026-04-28 21:39 | 51.08457 | 7.17628 | 33231 ft | 447 kts | 105° |
| 2026-04-28 21:39 | 51.06618 | 7.27082 | 33232 ft | 448 kts | 105° |
| 2026-04-28 21:40 | 51.04772 | 7.36564 | 33226 ft | 449 kts | 105° |
| 2026-04-28 21:40 | 51.02915 | 7.46060 | 33220 ft | 451 kts | 105° |
| 2026-04-28 21:41 | 51.01054 | 7.55509 | 33226 ft | 452 kts | 106° |
| 2026-04-28 21:41 | 50.99161 | 7.65040 | 33227 ft | 453 kts | 106° |
| 2026-04-28 21:42 | 50.97255 | 7.74580 | 33233 ft | 454 kts | 106° |
| 2026-04-28 21:42 | 50.95331 | 7.84141 | 33235 ft | 455 kts | 106° |
| 2026-04-28 21:43 | 50.93274 | 7.93651 | 33235 ft | 457 kts | 114° |
| 2026-04-28 21:43 | 50.90470 | 8.00832 | 33228 ft | 460 kts | 129° |
| 2026-04-28 21:44 | 50.85947 | 8.08024 | 33225 ft | 462 kts | 136° |
| 2026-04-28 21:44 | 50.81314 | 8.15094 | 33222 ft | 464 kts | 136° |
| 2026-04-28 21:45 | 50.76659 | 8.22199 | 33224 ft | 466 kts | 136° |
| 2026-04-28 21:45 | 50.71979 | 8.29286 | 33226 ft | 467 kts | 137° |
| 2026-04-28 21:46 | 50.67280 | 8.36391 | 33229 ft | 468 kts | 137° |
| 2026-04-28 21:46 | 50.62599 | 8.43447 | 33231 ft | 470 kts | 137° |
| 2026-04-28 21:47 | 50.57866 | 8.50560 | 33234 ft | 471 kts | 137° |
| 2026-04-28 21:47 | 50.53115 | 8.57682 | 33234 ft | 473 kts | 137° |
| 2026-04-28 21:48 | 50.48349 | 8.64824 | 33225 ft | 474 kts | 138° |
| 2026-04-28 21:48 | 50.43561 | 8.71975 | 33227 ft | 476 kts | 138° |
| 2026-04-28 21:49 | 50.38736 | 8.79125 | 33221 ft | 478 kts | 139° |
| 2026-04-28 21:49 | 50.34263 | 8.86839 | 33214 ft | 482 kts | 125° |
| 2026-04-28 21:50 | 50.31181 | 8.96182 | 33214 ft | 485 kts | 114° |
| 2026-04-28 21:50 | 50.28397 | 9.05824 | 33214 ft | 487 kts | 115° |
| 2026-04-28 21:51 | 50.25576 | 9.15478 | 33215 ft | 489 kts | 115° |
| 2026-04-28 21:51 | 50.22742 | 9.25153 | 33217 ft | 490 kts | 115° |
| 2026-04-28 21:52 | 50.19894 | 9.34856 | 33221 ft | 492 kts | 115° |
| 2026-04-28 21:52 | 50.17034 | 9.44571 | 33221 ft | 493 kts | 115° |
| 2026-04-28 21:53 | 50.14158 | 9.54296 | 33223 ft | 494 kts | 115° |
| 2026-04-28 21:53 | 50.11271 | 9.64022 | 33219 ft | 495 kts | 115° |
| 2026-04-28 21:54 | 50.08373 | 9.73770 | 33220 ft | 496 kts | 116° |
| 2026-04-28 21:54 | 50.05000 | 9.83109 | 33218 ft | 496 kts | 125° |
| 2026-04-28 21:55 | 50.01192 | 9.92075 | 33214 ft | 497 kts | 125° |
| 2026-04-28 21:55 | 49.97378 | 10.01058 | 33216 ft | 498 kts | 125° |
| 2026-04-28 21:56 | 49.93554 | 10.10055 | 33211 ft | 500 kts | 125° |
| 2026-04-28 21:56 | 49.89711 | 10.19051 | 33209 ft | 501 kts | 125° |
| 2026-04-28 21:57 | 49.85850 | 10.28061 | 33205 ft | 502 kts | 125° |
| 2026-04-28 21:57 | 49.81981 | 10.37080 | 33203 ft | 503 kts | 125° |
| 2026-04-28 21:58 | 49.78099 | 10.46098 | 33199 ft | 504 kts | 126° |
| 2026-04-28 21:58 | 49.74202 | 10.55108 | 33196 ft | 505 kts | 126° |
| 2026-04-28 21:59 | 49.70281 | 10.64127 | 33189 ft | 506 kts | 126° |
| 2026-04-28 22:00 | 49.64383 | 10.77650 | 33196 ft | 507 kts | 126° |
| 2026-04-28 22:00 | 49.60434 | 10.86676 | 33197 ft | 508 kts | 126° |
| 2026-04-28 22:01 | 49.56472 | 10.95694 | 33194 ft | 509 kts | 126° |
| 2026-04-28 22:01 | 49.52555 | 11.04782 | 33196 ft | 511 kts | 121° |
| 2026-04-28 22:02 | 49.49307 | 11.14538 | 33205 ft | 512 kts | 118° |
| 2026-04-28 22:02 | 49.46114 | 11.24269 | 33203 ft | 513 kts | 118° |
| 2026-04-28 22:03 | 49.42889 | 11.34059 | 33203 ft | 514 kts | 118° |
| 2026-04-28 22:03 | 49.39649 | 11.43851 | 33195 ft | 515 kts | 118° |
| 2026-04-28 22:04 | 49.36385 | 11.53652 | 33188 ft | 516 kts | 118° |
| 2026-04-28 22:04 | 49.33105 | 11.63444 | 33185 ft | 516 kts | 118° |
| 2026-04-28 22:05 | 49.29814 | 11.73234 | 33185 ft | 517 kts | 118° |
| 2026-04-28 22:05 | 49.26516 | 11.83037 | 33183 ft | 518 kts | 118° |
| 2026-04-28 22:06 | 49.23207 | 11.92842 | 33188 ft | 518 kts | 118° |
| 2026-04-28 22:06 | 49.19888 | 12.02638 | 33186 ft | 519 kts | 118° |
| 2026-04-28 22:07 | 49.16548 | 12.12438 | 33179 ft | 520 kts | 118° |
| 2026-04-28 22:07 | 49.13198 | 12.22224 | 33172 ft | 520 kts | 118° |
| 2026-04-28 22:08 | 49.09834 | 12.32022 | 33168 ft | 521 kts | 119° |
| 2026-04-28 22:08 | 49.06461 | 12.41806 | 33167 ft | 521 kts | 119° |
| 2026-04-28 22:09 | 49.03084 | 12.51602 | 33167 ft | 522 kts | 119° |
| 2026-04-28 22:09 | 48.99692 | 12.61390 | 33167 ft | 523 kts | 119° |
| 2026-04-28 22:10 | 48.96285 | 12.71172 | 33164 ft | 523 kts | 119° |
| 2026-04-28 22:10 | 48.92869 | 12.80945 | 33163 ft | 523 kts | 119° |
| 2026-04-28 22:11 | 48.89440 | 12.90716 | 33163 ft | 524 kts | 119° |
| 2026-04-28 22:11 | 48.85995 | 13.00471 | 33164 ft | 524 kts | 119° |
| 2026-04-28 22:12 | 48.82543 | 13.10230 | 33163 ft | 525 kts | 119° |
| 2026-04-28 22:12 | 48.79087 | 13.19980 | 33166 ft | 525 kts | 119° |
| 2026-04-28 22:13 | 48.75508 | 13.29625 | 33159 ft | 524 kts | 125° |
| 2026-04-28 22:13 | 48.71421 | 13.38778 | 33160 ft | 524 kts | 126° |
| 2026-04-28 22:14 | 48.67274 | 13.47851 | 33161 ft | 524 kts | 126° |
| 2026-04-28 22:14 | 48.63114 | 13.56920 | 33164 ft | 525 kts | 126° |
| 2026-04-28 22:15 | 48.58963 | 13.66001 | 33165 ft | 525 kts | 126° |
| 2026-04-28 22:15 | 48.54825 | 13.75066 | 33168 ft | 525 kts | 126° |
| 2026-04-28 22:16 | 48.50671 | 13.84112 | 33167 ft | 525 kts | 126° |
| 2026-04-28 22:16 | 48.46504 | 13.93144 | 33172 ft | 525 kts | 126° |
| 2026-04-28 22:17 | 48.42324 | 14.02172 | 33177 ft | 525 kts | 126° |
| 2026-04-28 22:17 | 48.38146 | 14.11167 | 33183 ft | 525 kts | 126° |
| 2026-04-28 22:18 | 48.33952 | 14.20167 | 33187 ft | 525 kts | 126° |
| 2026-04-28 22:18 | 48.29756 | 14.29150 | 33190 ft | 525 kts | 126° |
| 2026-04-28 22:19 | 48.25550 | 14.38113 | 33185 ft | 525 kts | 126° |
| 2026-04-28 22:19 | 48.21340 | 14.47055 | 33181 ft | 525 kts | 126° |
| 2026-04-28 22:20 | 48.17120 | 14.55987 | 33177 ft | 525 kts | 126° |
| 2026-04-28 22:20 | 48.12893 | 14.64898 | 33176 ft | 524 kts | 127° |
| 2026-04-28 22:21 | 48.08485 | 14.73600 | 33172 ft | 524 kts | 130° |
| 2026-04-28 22:21 | 48.03950 | 14.82023 | 33172 ft | 523 kts | 130° |
| 2026-04-28 22:22 | 47.99383 | 14.90488 | 33174 ft | 523 kts | 130° |
| 2026-04-28 22:22 | 47.94831 | 14.99059 | 33173 ft | 523 kts | 129° |
| 2026-04-28 22:23 | 47.90331 | 15.07580 | 33171 ft | 523 kts | 130° |
| 2026-04-28 22:23 | 47.85822 | 15.16086 | 33171 ft | 523 kts | 129° |
| 2026-04-28 22:24 | 47.82057 | 15.23123 | 33174 ft | 523 kts | 129° |
| 2026-04-28 22:24 | 47.77518 | 15.31564 | 33173 ft | 523 kts | 130° |
| 2026-04-28 22:25 | 47.72975 | 15.40020 | 33177 ft | 524 kts | 129° |
| 2026-04-28 22:25 | 47.68423 | 15.48469 | 33175 ft | 524 kts | 130° |
| 2026-04-28 22:26 | 47.63862 | 15.56904 | 33182 ft | 524 kts | 130° |
| 2026-04-28 22:26 | 47.59296 | 15.65317 | 33180 ft | 524 kts | 130° |
| 2026-04-28 22:27 | 47.54723 | 15.73720 | 33189 ft | 524 kts | 130° |
| 2026-04-28 22:27 | 47.50143 | 15.82103 | 33192 ft | 524 kts | 130° |
| 2026-04-28 22:28 | 47.45554 | 15.90483 | 33188 ft | 524 kts | 130° |
| 2026-04-28 22:28 | 47.40953 | 15.98844 | 33186 ft | 525 kts | 130° |
| 2026-04-28 22:29 | 47.36345 | 16.07199 | 33183 ft | 525 kts | 130° |
| 2026-04-28 22:29 | 47.31738 | 16.15545 | 33178 ft | 525 kts | 130° |
| 2026-04-28 22:30 | 47.27126 | 16.23878 | 33181 ft | 525 kts | 130° |
| 2026-04-28 22:30 | 47.22506 | 16.32198 | 33176 ft | 525 kts | 130° |
| 2026-04-28 22:31 | 47.17872 | 16.40482 | 33176 ft | 525 kts | 130° |
| 2026-04-28 22:31 | 47.13229 | 16.48758 | 33172 ft | 525 kts | 130° |
| 2026-04-28 22:32 | 47.08577 | 16.57053 | 33171 ft | 525 kts | 130° |
| 2026-04-28 22:32 | 47.03964 | 16.65263 | 33163 ft | 525 kts | 130° |
| 2026-04-28 22:33 | 46.99310 | 16.73500 | 33156 ft | 525 kts | 130° |
| 2026-04-28 22:33 | 46.94618 | 16.81785 | 33156 ft | 525 kts | 130° |
| 2026-04-28 22:34 | 46.89953 | 16.89995 | 33152 ft | 525 kts | 130° |
| 2026-04-28 22:34 | 46.85281 | 16.98199 | 33155 ft | 525 kts | 130° |
| 2026-04-28 22:35 | 46.80605 | 17.06380 | 33162 ft | 524 kts | 130° |
| 2026-04-28 22:35 | 46.75926 | 17.14541 | 33162 ft | 524 kts | 131° |
| 2026-04-28 22:36 | 46.71268 | 17.22629 | 33167 ft | 524 kts | 131° |
| 2026-04-28 22:36 | 46.66580 | 17.30774 | 33167 ft | 524 kts | 131° |
| 2026-04-28 22:37 | 46.61893 | 17.38888 | 33163 ft | 523 kts | 131° |
| 2026-04-28 22:37 | 46.57197 | 17.46976 | 33163 ft | 523 kts | 131° |
| 2026-04-28 22:38 | 46.52503 | 17.55036 | 33161 ft | 522 kts | 131° |
| 2026-04-28 22:38 | 46.47807 | 17.63084 | 33155 ft | 522 kts | 131° |
| 2026-04-28 22:39 | 46.43109 | 17.71107 | 33145 ft | 522 kts | 131° |
| 2026-04-28 22:39 | 46.38420 | 17.79103 | 32768 ft | 519 kts | 131° |
| 2026-04-28 22:39 | 46.36074 | 17.83093 | 32084 ft | 520 kts | 131° |
| 2026-04-28 22:40 | 46.33725 | 17.87077 | 31427 ft | 520 kts | 132° |
| 2026-04-28 22:40 | 46.31374 | 17.91058 | 30765 ft | 521 kts | 132° |
| 2026-04-28 22:40 | 46.29021 | 17.95040 | 30093 ft | 521 kts | 132° |
| 2026-04-28 22:40 | 46.26669 | 17.99019 | 29317 ft | 521 kts | 132° |
| 2026-04-28 22:41 | 46.24312 | 18.03003 | 28557 ft | 521 kts | 133° |
| 2026-04-28 22:41 | 46.21958 | 18.06970 | 27923 ft | 518 kts | 133° |
| 2026-04-28 22:41 | 46.19627 | 18.10888 | 27408 ft | 512 kts | 133° |
| 2026-04-28 22:41 | 46.17318 | 18.14763 | 26872 ft | 507 kts | 133° |
| 2026-04-28 22:42 | 46.15031 | 18.18599 | 26335 ft | 501 kts | 133° |
| 2026-04-28 22:42 | 46.12765 | 18.22399 | 25801 ft | 496 kts | 133° |
| 2026-04-28 22:42 | 46.10528 | 18.26150 | 25275 ft | 491 kts | 133° |
| 2026-04-28 22:42 | 46.08314 | 18.29862 | 24771 ft | 486 kts | 133° |
| 2026-04-28 22:43 | 46.06118 | 18.33540 | 24261 ft | 481 kts | 133° |
| 2026-04-28 22:43 | 46.03939 | 18.37180 | 23750 ft | 477 kts | 134° |
| 2026-04-28 22:43 | 46.01780 | 18.40776 | 23170 ft | 472 kts | 134° |
| 2026-04-28 22:43 | 45.99646 | 18.44324 | 22612 ft | 466 kts | 133° |
| 2026-04-28 22:44 | 45.97560 | 18.47785 | 22070 ft | 461 kts | 133° |
| 2026-04-28 22:44 | 45.95472 | 18.51242 | 21540 ft | 456 kts | 133° |
| 2026-04-28 22:44 | 45.93409 | 18.54653 | 21018 ft | 450 kts | 133° |
| 2026-04-28 22:44 | 45.91363 | 18.58034 | 20517 ft | 445 kts | 133° |
| 2026-04-28 22:45 | 45.89340 | 18.61374 | 20043 ft | 441 kts | 133° |
| 2026-04-28 22:45 | 45.87337 | 18.64675 | 19562 ft | 436 kts | 133° |
| 2026-04-28 22:45 | 45.85357 | 18.67940 | 19126 ft | 432 kts | 133° |
| 2026-04-28 22:45 | 45.83392 | 18.71172 | 18649 ft | 429 kts | 133° |
| 2026-04-28 22:46 | 45.81403 | 18.74441 | 17998 ft | 429 kts | 133° |
| 2026-04-28 22:46 | 45.79440 | 18.77662 | 17321 ft | 429 kts | 133° |
| 2026-04-28 22:46 | 45.77478 | 18.80877 | 16664 ft | 428 kts | 133° |
| 2026-04-28 22:46 | 45.75546 | 18.84043 | 16027 ft | 427 kts | 133° |
| 2026-04-28 22:47 | 45.73593 | 18.87244 | 15400 ft | 426 kts | 132° |
| 2026-04-28 22:47 | 45.71647 | 18.90435 | 14781 ft | 425 kts | 132° |
| 2026-04-28 22:47 | 45.69706 | 18.93615 | 14176 ft | 423 kts | 132° |
| 2026-04-28 22:47 | 45.67772 | 18.96780 | 13536 ft | 421 kts | 132° |
| 2026-04-28 22:48 | 45.65848 | 18.99921 | 12877 ft | 419 kts | 132° |
| 2026-04-28 22:48 | 45.63931 | 19.03040 | 12230 ft | 416 kts | 132° |
| 2026-04-28 22:48 | 45.62026 | 19.06128 | 11604 ft | 413 kts | 132° |
| 2026-04-28 22:48 | 45.60136 | 19.09190 | 10978 ft | 409 kts | 132° |
| 2026-04-28 22:49 | 45.58260 | 19.12225 | 10363 ft | 406 kts | 132° |
| 2026-04-28 22:49 | 45.56402 | 19.15230 | 9720 ft | 402 kts | 132° |
| 2026-04-28 22:49 | 45.54565 | 19.18203 | 9076 ft | 397 kts | 132° |
| 2026-04-28 22:49 | 45.52745 | 19.21143 | 8430 ft | 393 kts | 132° |
| 2026-04-28 22:50 | 45.50944 | 19.24051 | 7796 ft | 389 kts | 132° |
| 2026-04-28 22:50 | 45.49028 | 19.26724 | 7207 ft | 382 kts | 142° |
| 2026-04-28 22:50 | 45.47004 | 19.29034 | 7055 ft | 364 kts | 142° |
| 2026-04-28 22:50 | 45.45079 | 19.31250 | 6945 ft | 348 kts | 142° |
| 2026-04-28 22:51 | 45.43239 | 19.33373 | 6817 ft | 332 kts | 141° |
| 2026-04-28 22:51 | 45.41528 | 19.35352 | 6762 ft | 299 kts | 142° |
| 2026-04-28 22:51 | 45.39998 | 19.37116 | 6536 ft | 269 kts | 142° |
| 2026-04-28 22:51 | 45.38616 | 19.38704 | 6390 ft | 243 kts | 142° |
| 2026-04-28 22:52 | 45.37357 | 19.40147 | 6156 ft | 226 kts | 142° |
| 2026-04-28 22:52 | 45.36144 | 19.41534 | 5714 ft | 222 kts | 141° |
| 2026-04-28 22:52 | 45.34951 | 19.42899 | 5255 ft | 219 kts | 141° |
| 2026-04-28 22:52 | 45.33768 | 19.44249 | 4781 ft | 217 kts | 141° |
| 2026-04-28 22:53 | 45.32599 | 19.45582 | 4425 ft | 215 kts | 141° |
| 2026-04-28 22:53 | 45.31436 | 19.46907 | 4478 ft | 215 kts | 141° |
| 2026-04-28 22:53 | 45.30265 | 19.48243 | 4499 ft | 216 kts | 141° |
| 2026-04-28 22:53 | 45.29093 | 19.49579 | 4504 ft | 216 kts | 141° |
| 2026-04-28 22:54 | 45.27918 | 19.50921 | 4504 ft | 216 kts | 141° |
| 2026-04-28 22:54 | 45.26748 | 19.52258 | 4505 ft | 216 kts | 141° |
| 2026-04-28 22:54 | 45.25574 | 19.53597 | 4504 ft | 216 kts | 141° |
| 2026-04-28 22:54 | 45.24403 | 19.54935 | 4501 ft | 216 kts | 141° |
| 2026-04-28 22:55 | 45.23230 | 19.56274 | 4504 ft | 216 kts | 141° |
| 2026-04-28 22:55 | 45.22056 | 19.57610 | 4502 ft | 216 kts | 141° |
| 2026-04-28 22:55 | 45.20880 | 19.58944 | 4502 ft | 216 kts | 141° |
| 2026-04-28 22:55 | 45.19705 | 19.60279 | 4502 ft | 216 kts | 141° |
| 2026-04-28 22:56 | 45.18531 | 19.61613 | 4501 ft | 217 kts | 141° |
| 2026-04-28 22:56 | 45.17353 | 19.62949 | 4505 ft | 217 kts | 141° |
| 2026-04-28 22:56 | 45.16177 | 19.64282 | 4501 ft | 217 kts | 141° |
| 2026-04-28 22:56 | 45.14999 | 19.65615 | 4498 ft | 217 kts | 141° |
| 2026-04-28 22:57 | 45.13821 | 19.66947 | 4503 ft | 217 kts | 141° |
| 2026-04-28 22:57 | 45.12642 | 19.68281 | 4502 ft | 217 kts | 141° |
| 2026-04-28 22:57 | 45.11461 | 19.69617 | 4507 ft | 217 kts | 141° |
| 2026-04-28 22:57 | 45.10281 | 19.70948 | 4505 ft | 217 kts | 141° |
| 2026-04-28 22:58 | 45.09102 | 19.72280 | 4504 ft | 217 kts | 141° |
| 2026-04-28 22:58 | 45.07922 | 19.73615 | 4505 ft | 217 kts | 141° |
| 2026-04-28 22:58 | 45.06754 | 19.74969 | 4499 ft | 217 kts | 137° |
| 2026-04-28 22:58 | 45.05744 | 19.76557 | 4504 ft | 218 kts | 126° |
| 2026-04-28 22:59 | 45.04944 | 19.78341 | 4504 ft | 217 kts | 121° |
| 2026-04-28 22:59 | 45.04145 | 19.80187 | 4504 ft | 217 kts | 121° |
| 2026-04-28 22:59 | 45.03368 | 19.81973 | 4379 ft | 213 kts | 121° |
| 2026-04-28 22:59 | 45.02593 | 19.83745 | 4026 ft | 210 kts | 122° |
| 2026-04-28 23:00 | 45.01809 | 19.85509 | 4005 ft | 213 kts | 122° |
| 2026-04-28 23:00 | 45.01024 | 19.87296 | 4007 ft | 214 kts | 121° |
| 2026-04-28 23:00 | 45.00242 | 19.89085 | 4003 ft | 214 kts | 121° |
| 2026-04-28 23:00 | 44.99458 | 19.90881 | 4006 ft | 215 kts | 121° |
| 2026-04-28 23:01 | 44.98674 | 19.92676 | 4007 ft | 215 kts | 121° |
| 2026-04-28 23:01 | 44.97889 | 19.94471 | 4007 ft | 215 kts | 121° |
| 2026-04-28 23:01 | 44.97103 | 19.96266 | 4009 ft | 215 kts | 121° |
| 2026-04-28 23:01 | 44.96317 | 19.98062 | 4009 ft | 215 kts | 121° |
| 2026-04-28 23:02 | 44.95530 | 19.99858 | 4002 ft | 214 kts | 121° |
| 2026-04-28 23:02 | 44.94849 | 20.01410 | 3959 ft | 197 kts | 121° |
| 2026-04-28 23:02 | 44.94147 | 20.03012 | 3587 ft | 190 kts | 121° |
| 2026-04-28 23:02 | 44.93455 | 20.04589 | 3120 ft | 188 kts | 121° |
| 2026-04-28 23:03 | 44.92774 | 20.06140 | 3005 ft | 186 kts | 120° |
| 2026-04-28 23:03 | 44.92092 | 20.07692 | 3005 ft | 187 kts | 120° |
| 2026-04-28 23:03 | 44.91406 | 20.09251 | 3014 ft | 187 kts | 120° |
| 2026-04-28 23:03 | 44.90721 | 20.10809 | 2993 ft | 184 kts | 120° |
| 2026-04-28 23:04 | 44.90052 | 20.12329 | 2582 ft | 182 kts | 120° |
| 2026-04-28 23:04 | 44.88758 | 20.15263 | 2026 ft | 161 kts | 118° |
| 2026-04-28 23:04 | 44.88189 | 20.16553 | 1920 ft | 148 kts | 118° |
| 2026-04-28 23:05 | 44.87654 | 20.17771 | 1563 ft | 141 kts | 118° |
| 2026-04-28 23:05 | 44.87164 | 20.18866 | 1439 ft | 126 kts | 119° |
| 2026-04-28 23:05 | 44.86679 | 20.19910 | 1166 ft | 139 kts | 121° |
| 2026-04-28 23:05 | 44.86099 | 20.21144 | 1343 ft | 156 kts | 121° |
| 2026-04-28 23:06 | 44.85728 | 20.21997 | 1411 ft | 154 kts | 118° |
| 2026-04-28 23:06 | 44.85723 | 20.22008 | 1410 ft | 154 kts | 118° |
| 2026-04-28 23:06 | 44.85361 | 20.22874 | 1455 ft | 151 kts | 117° |
| 2026-04-28 23:06 | 44.84859 | 20.24177 | 1332 ft | 151 kts | 118° |
| 2026-04-28 23:07 | 44.84269 | 20.25410 | 1093 ft | 151 kts | 122° |
| 2026-04-28 23:07 | 44.83717 | 20.26668 | 791 ft | 150 kts | 120° |
| 2026-04-28 23:07 | 44.83162 | 20.27917 | 583 ft | 150 kts | 121° |
| 2026-04-28 23:07 | 44.82611 | 20.29170 | 411 ft | 151 kts | 121° |
| 2026-04-28 23:08 | 44.82067 | 20.30392 | 326 ft | 141 kts | 122° |
| 2026-04-28 23:08 | 44.81637 | 20.31378 | 318 ft | 94 kts | 121° |
| 2026-04-28 23:08 | 44.81396 | 20.31930 | 323 ft | 35 kts | 123° |
| 2026-04-28 23:08 | 44.81302 | 20.32143 | 323 ft | 21 kts | 124° |
| 2026-04-28 23:09 | 44.81200 | 20.32285 | 322 ft | 21 kts | 150° |
| 2026-04-28 23:09 | 44.81093 | 20.32296 | 321 ft | 12 kts | 200° |
| 2026-04-28 23:09 | 44.81013 | 20.32245 | 321 ft | 13 kts | 212° |
| 2026-04-28 23:09 | 44.80989 | 20.32134 | 321 ft | 13 kts | 278° |
| 2026-04-28 23:10 | 44.81030 | 20.32028 | 321 ft | 13 kts | 300° |
| 2026-04-28 23:10 | 44.81081 | 20.31915 | 321 ft | 14 kts | 304° |
| 2026-04-28 23:10 | 44.81137 | 20.31795 | 321 ft | 15 kts | 302° |
| 2026-04-28 23:10 | 44.81195 | 20.31667 | 321 ft | 16 kts | 302° |
| 2026-04-28 23:11 | 44.81257 | 20.31530 | 321 ft | 17 kts | 302° |
| 2026-04-28 23:11 | 44.81323 | 20.31385 | 321 ft | 18 kts | 302° |
| 2026-04-28 23:11 | 44.81391 | 20.31232 | 320 ft | 19 kts | 302° |
| 2026-04-28 23:11 | 44.81461 | 20.31071 | 320 ft | 20 kts | 301° |
| 2026-04-28 23:12 | 44.81533 | 20.30903 | 320 ft | 21 kts | 302° |
| 2026-04-28 23:12 | 44.81611 | 20.30729 | 321 ft | 21 kts | 302° |
| 2026-04-28 23:12 | 44.81692 | 20.30548 | 321 ft | 22 kts | 302° |
| 2026-04-28 23:12 | 44.81777 | 20.30360 | 320 ft | 23 kts | 302° |
| 2026-04-28 23:13 | 44.81864 | 20.30165 | 320 ft | 24 kts | 302° |
| 2026-04-28 23:13 | 44.81952 | 20.29964 | 321 ft | 25 kts | 301° |
| 2026-04-28 23:13 | 44.82028 | 20.29787 | 321 ft | 15 kts | 301° |
| 2026-04-28 23:13 | 44.82076 | 20.29679 | 320 ft | 10 kts | 302° |
| 2026-04-28 23:14 | 44.82060 | 20.29620 | 321 ft | 7 kts | 228° |
| 2026-04-28 23:14 | 44.82019 | 20.29581 | 321 ft | 8 kts | 211° |
| 2026-04-28 23:14 | 44.81969 | 20.29536 | 320 ft | 9 kts | 213° |
| 2026-04-28 23:14 | 44.81912 | 20.29482 | 321 ft | 10 kts | 214° |
| 2026-04-28 23:15 | 44.81848 | 20.29423 | 321 ft | 12 kts | 211° |
| 2026-04-28 23:15 | 44.81803 | 20.29338 | 321 ft | 12 kts | 281° |
| 2026-04-28 23:15 | 44.81810 | 20.29306 | 321 ft | 1 kts | 281° |
| 2026-04-28 23:15 | 44.81809 | 20.29298 | 321 ft | 1 kts | 262° |
| 2026-04-28 23:16 | 44.81805 | 20.29284 | 321 ft | 2 kts | 238° |
| 2026-04-28 23:16 | 44.81795 | 20.29264 | 320 ft | 3 kts | 236° |
| 2026-04-28 23:16 | 44.81790 | 20.29232 | 321 ft | 4 kts | 278° |
| 2026-04-28 23:16 | 44.81802 | 20.29196 | 321 ft | 5 kts | 300° |
| 2026-04-28 23:17 | 44.81815 | 20.29168 | 321 ft | 0 kts | 301° |